createdAt,value
2019-01-17T00:01:09.841Z,57.07
2019-01-17T00:04:25.479Z,57.16
2019-01-17T00:07:37.997Z,57.23
2019-01-17T00:10:44.789Z,57.26
2019-01-17T00:13:48.668Z,57.10
2019-01-17T00:16:52.392Z,57.09
2019-01-17T00:20:13.135Z,57.16
2019-01-17T00:23:32.209Z,57.17
2019-01-17T00:26:35.945Z,57.20
2019-01-17T00:29:42.363Z,57.18
2019-01-17T00:32:48.745Z,57.12
2019-01-17T00:35:52.564Z,57.09
2019-01-17T00:39:13.026Z,57.06
2019-01-17T00:42:19.821Z,57.09
2019-01-17T00:45:26.418Z,57.07
2019-01-17T00:48:35.936Z,56.99
2019-01-17T00:51:56.594Z,57.15
2019-01-17T00:55:12.622Z,57.16
2019-01-17T00:58:16.938Z,57.26
2019-01-17T01:01:23.954Z,57.82
2019-01-17T01:04:27.791Z,58.24
2019-01-17T01:07:42.307Z,58.39
2019-01-17T01:11:09.749Z,58.38
2019-01-17T01:14:18.829Z,58.30
2019-01-17T01:17:35.593Z,58.21
2019-01-17T01:20:49.603Z,58.14
2019-01-17T01:24:07.319Z,58.12
2019-01-17T01:27:40.672Z,58.16
2019-01-17T01:30:58.757Z,58.26
2019-01-17T01:34:16.291Z,58.54
2019-01-17T01:37:23.706Z,58.65
2019-01-17T01:40:33.379Z,58.49
2019-01-17T01:43:45.834Z,58.45
2019-01-17T01:46:55.352Z,58.66
2019-01-17T01:50:14.155Z,58.63
2019-01-17T01:53:16.084Z,58.51
2019-01-17T01:56:18.025Z,58.28
2019-01-17T01:59:19.993Z,58.06
2019-01-17T02:02:22.056Z,58.07
2019-01-17T02:05:24.112Z,58.16
2019-01-17T02:08:26.094Z,58.02
2019-01-17T02:11:28.063Z,58.00
2019-01-17T02:14:30.117Z,57.96
2019-01-17T02:17:32.239Z,57.86
2019-01-17T02:20:34.202Z,57.76
2019-01-17T02:23:36.173Z,57.64
2019-01-17T02:26:38.100Z,57.43
2019-01-17T02:29:40.342Z,57.43
2019-01-17T02:32:42.268Z,57.47
2019-01-17T02:35:44.137Z,57.45
2019-01-17T02:38:46.107Z,57.43
2019-01-17T02:41:48.078Z,57.41
2019-01-17T02:44:50.087Z,57.32
2019-01-17T02:47:52.052Z,57.38
2019-01-17T02:50:53.941Z,57.28
2019-01-17T02:53:55.919Z,57.12
2019-01-17T02:56:57.952Z,56.87
2019-01-17T02:59:59.908Z,56.70
2019-01-17T03:03:01.980Z,56.48
2019-01-17T03:06:03.947Z,56.16
2019-01-17T03:09:07.134Z,55.97
2019-01-17T03:12:10.442Z,55.99
2019-01-17T03:15:12.624Z,56.06
2019-01-17T03:18:14.583Z,56.06
2019-01-17T03:21:16.661Z,55.96
2019-01-17T03:24:18.619Z,55.86
2019-01-17T03:27:20.555Z,55.73
2019-01-17T03:30:22.548Z,55.53
2019-01-17T03:33:24.450Z,55.58
2019-01-17T03:36:26.430Z,55.68
2019-01-17T03:39:28.406Z,55.73
2019-01-17T03:42:31.383Z,55.71
2019-01-17T03:45:33.509Z,55.85
2019-01-17T03:48:36.546Z,55.91
2019-01-17T03:51:38.469Z,55.71
2019-01-17T03:54:40.509Z,55.42
2019-01-17T03:57:42.403Z,55.21
2019-01-17T04:00:44.432Z,55.11
2019-01-17T04:03:46.429Z,55.13
2019-01-17T04:06:48.390Z,55.17
2019-01-17T04:09:50.266Z,55.15
2019-01-17T04:12:52.348Z,55.02
2019-01-17T04:15:55.783Z,54.80
2019-01-17T04:18:57.660Z,54.60
2019-01-17T04:21:59.545Z,54.52
2019-01-17T04:25:02.108Z,54.44
2019-01-17T04:28:04.038Z,54.38
2019-01-17T04:31:06.264Z,54.28
2019-01-17T04:34:09.430Z,54.00
2019-01-17T04:37:11.791Z,53.77
2019-01-17T04:40:13.689Z,53.59
2019-01-17T04:43:17.106Z,53.49
2019-01-17T04:46:18.991Z,53.43
2019-01-17T04:49:20.937Z,53.51
2019-01-17T04:52:22.910Z,53.50
2019-01-17T04:55:24.909Z,53.59
2019-01-17T04:58:26.901Z,53.44
2019-01-17T05:01:29.295Z,53.37
2019-01-17T05:04:31.303Z,53.34
2019-01-17T05:07:33.258Z,53.25
2019-01-17T05:10:35.180Z,53.13
2019-01-17T05:13:37.277Z,52.74
2019-01-17T05:16:39.235Z,52.53
2019-01-17T05:19:41.240Z,51.83
2019-01-17T05:22:43.241Z,52.21
2019-01-17T05:25:46.625Z,52.16
2019-01-17T05:28:48.547Z,51.94
2019-01-17T05:31:50.932Z,51.82
2019-01-17T05:34:54.028Z,52.01
2019-01-17T05:37:55.997Z,52.01
2019-01-17T05:40:58.773Z,51.97
2019-01-17T05:44:00.781Z,52.10
2019-01-17T05:47:02.754Z,52.47
2019-01-17T05:50:08.276Z,52.58
2019-01-17T05:53:10.251Z,52.57
2019-01-17T05:56:12.499Z,52.68
2019-01-17T05:59:14.488Z,52.83
2019-01-17T06:02:16.489Z,52.85
2019-01-17T06:05:18.645Z,52.88
2019-01-17T06:08:20.642Z,52.88
2019-01-17T06:11:22.586Z,52.84
2019-01-17T06:14:24.602Z,52.84
2019-01-17T06:17:26.440Z,52.96
2019-01-17T06:20:29.523Z,53.14
2019-01-17T06:23:31.474Z,53.24
2019-01-17T06:26:33.487Z,53.31
2019-01-17T06:29:35.438Z,53.45
2019-01-17T06:32:37.399Z,53.58
2019-01-17T06:35:39.636Z,53.75
2019-01-17T06:38:42.285Z,53.77
2019-01-17T06:41:44.199Z,53.71
2019-01-17T06:44:46.274Z,53.86
2019-01-17T06:47:48.161Z,53.94
2019-01-17T06:50:50.200Z,54.03
2019-01-17T06:53:52.204Z,53.98
2019-01-17T06:56:54.153Z,53.87
2019-01-17T06:59:56.041Z,53.75
2019-01-17T07:02:58.005Z,53.42
2019-01-17T07:06:00.117Z,53.23
2019-01-17T07:09:01.993Z,52.99
2019-01-17T07:12:05.584Z,52.84
2019-01-17T07:15:08.989Z,52.79
2019-01-17T07:18:10.926Z,52.58
2019-01-17T07:21:12.898Z,52.60
2019-01-17T07:24:14.836Z,52.49
2019-01-17T07:27:16.805Z,52.47
2019-01-17T07:30:21.154Z,52.51
2019-01-17T07:33:23.521Z,52.77
2019-01-17T07:36:25.920Z,52.83
2019-01-17T07:39:27.916Z,52.79
2019-01-17T07:42:29.840Z,52.67
2019-01-17T07:45:31.877Z,52.68
2019-01-17T07:48:33.816Z,52.39
2019-01-17T07:51:35.847Z,52.57
2019-01-17T07:54:37.776Z,52.41
2019-01-17T07:57:39.849Z,52.45
2019-01-17T08:00:41.758Z,52.47
2019-01-17T08:03:43.764Z,52.41
2019-01-17T08:06:45.807Z,52.44
2019-01-17T08:09:47.796Z,52.47
2019-01-17T08:12:49.840Z,52.58
2019-01-17T08:15:51.905Z,52.34
2019-01-17T08:18:53.885Z,52.30
2019-01-17T08:21:56.264Z,51.82
2019-01-17T08:24:58.191Z,51.57
2019-01-17T08:28:00.188Z,51.22
2019-01-17T08:31:02.150Z,50.97
2019-01-17T08:34:05.116Z,50.82
2019-01-17T08:37:07.711Z,50.95
2019-01-17T08:40:20.389Z,50.60
2019-01-17T08:43:22.850Z,50.58
2019-01-17T08:46:24.923Z,50.46
2019-01-17T08:49:26.848Z,50.23
2019-01-17T08:52:28.861Z,50.18
2019-01-17T08:55:30.770Z,50.21
2019-01-17T08:58:32.809Z,50.31
2019-01-17T09:01:34.729Z,50.50
2019-01-17T09:04:36.680Z,50.74
2019-01-17T09:07:38.662Z,50.98
2019-01-17T09:10:40.665Z,51.10
2019-01-17T09:13:42.552Z,51.16
2019-01-17T09:19:50.986Z,50.88
2019-01-17T09:22:52.902Z,50.90
2019-01-17T09:25:54.858Z,50.78
2019-01-17T09:28:56.841Z,50.76
2019-01-17T09:31:58.805Z,50.80
2019-01-17T09:35:00.718Z,50.69
2019-01-17T09:38:03.157Z,50.82
2019-01-17T09:41:05.112Z,50.88
2019-01-17T09:44:07.059Z,51.00
2019-01-17T09:47:09.488Z,50.45
2019-01-17T09:50:19.923Z,50.31
2019-01-17T09:53:21.907Z,49.95
2019-01-17T09:56:23.878Z,49.98
2019-01-17T09:59:25.862Z,50.08
2019-01-17T10:02:28.392Z,49.96
2019-01-17T10:05:30.403Z,49.73
2019-01-17T10:08:32.480Z,49.87
2019-01-17T10:11:34.467Z,50.17
2019-01-17T10:14:36.437Z,50.69
2019-01-17T10:17:42.038Z,50.63
2019-01-17T10:20:47.639Z,50.94
2019-01-17T10:24:10.725Z,51.23
2019-01-17T10:27:25.310Z,51.42
2019-01-17T10:30:33.625Z,51.37
2019-01-17T10:33:45.538Z,51.41
2019-01-17T10:36:59.784Z,51.31
2019-01-17T10:40:33.104Z,51.39
2019-01-17T10:43:56.783Z,51.51
2019-01-17T10:47:14.538Z,51.25
2019-01-17T10:50:29.008Z,51.05
2019-01-17T10:53:41.191Z,51.13
2019-01-17T10:57:08.152Z,50.63
2019-01-17T11:00:20.304Z,50.65
2019-01-17T11:03:31.590Z,50.51
2019-01-17T11:06:43.382Z,50.49
2019-01-17T11:09:54.629Z,50.63
2019-01-17T11:13:12.477Z,50.54
2019-01-17T11:16:21.323Z,50.42
2019-01-17T11:19:51.310Z,50.64
2019-01-17T11:23:12.046Z,50.60
2019-01-17T11:26:26.927Z,50.88
2019-01-17T11:29:43.996Z,51.17
2019-01-17T11:33:01.871Z,50.99
2019-01-17T11:36:16.118Z,50.94
2019-01-17T11:39:36.309Z,51.10
2019-01-17T11:42:53.986Z,51.11
2019-01-17T11:46:23.150Z,51.11
2019-01-17T11:49:54.610Z,51.40
2019-01-17T11:53:09.463Z,51.55
2019-01-17T11:56:20.849Z,51.44
2019-01-17T11:59:38.731Z,51.55
2019-01-17T12:03:05.011Z,51.52
2019-01-17T12:06:06.972Z,51.68
2019-01-17T12:09:08.997Z,51.73
2019-01-17T12:12:12.932Z,51.54
2019-01-17T12:15:15.050Z,51.81
2019-01-17T12:18:17.064Z,51.66
2019-01-17T12:21:19.031Z,51.81
2019-01-17T12:24:21.031Z,51.87
2019-01-17T12:27:23.042Z,51.99
2019-01-17T12:30:24.973Z,52.17
2019-01-17T12:33:26.994Z,52.18
2019-01-17T12:36:28.951Z,52.21
2019-01-17T12:39:30.945Z,52.25
2019-01-17T12:42:32.895Z,52.20
2019-01-17T12:45:34.960Z,52.21
2019-01-17T12:48:37.360Z,52.23
2019-01-17T12:51:39.390Z,52.35
2019-01-17T12:54:41.451Z,52.19
2019-01-17T12:57:44.400Z,52.34
2019-01-17T13:00:46.393Z,52.49
2019-01-17T13:03:48.475Z,52.40
2019-01-17T13:06:50.456Z,52.56
2019-01-17T13:09:52.421Z,52.69
2019-01-17T13:12:54.455Z,52.74
2019-01-17T13:15:56.484Z,52.87
2019-01-17T13:18:58.462Z,52.78
2019-01-17T13:22:00.355Z,52.82
2019-01-17T13:25:04.147Z,52.94
2019-01-17T13:28:06.171Z,52.99
2019-01-17T13:31:08.148Z,53.19
2019-01-17T13:34:10.118Z,53.11
2019-01-17T13:37:12.067Z,53.18
2019-01-17T13:40:19.237Z,53.51
2019-01-17T13:43:21.236Z,53.59
2019-01-17T13:46:23.191Z,53.85
2019-01-17T13:49:25.261Z,53.92
2019-01-17T13:52:27.257Z,53.97
2019-01-17T13:55:29.228Z,53.89
2019-01-17T13:58:31.198Z,54.05
2019-01-17T14:01:33.477Z,54.01
2019-01-17T14:04:35.383Z,53.96
2019-01-17T14:07:38.034Z,53.94
2019-01-17T14:10:39.994Z,53.99
2019-01-17T14:13:42.072Z,53.83
2019-01-17T14:16:43.974Z,53.80
2019-01-17T14:19:46.069Z,53.67
2019-01-17T14:22:48.144Z,53.64
2019-01-17T14:25:51.195Z,53.70
2019-01-17T14:28:53.117Z,53.69
2019-01-17T14:31:55.093Z,53.55
2019-01-17T14:34:57.033Z,53.47
2019-01-17T14:37:59.025Z,53.40
2019-01-17T14:41:00.955Z,53.39
2019-01-17T14:44:03.037Z,53.36
2019-01-17T14:47:04.947Z,53.25
2019-01-17T14:50:13.262Z,53.15
2019-01-17T14:53:15.227Z,53.12
2019-01-17T14:56:17.190Z,53.33
2019-01-17T14:59:19.122Z,53.55
2019-01-17T15:02:21.089Z,53.58
2019-01-17T15:05:23.044Z,53.81
2019-01-17T15:08:25.214Z,53.97
2019-01-17T15:11:27.088Z,54.09
2019-01-17T15:14:29.197Z,53.96
2019-01-17T15:17:32.075Z,53.84
2019-01-17T15:20:34.684Z,53.65
2019-01-17T15:23:36.640Z,53.78
2019-01-17T15:26:38.675Z,53.87
2019-01-17T15:29:42.436Z,54.00
2019-01-17T15:32:44.428Z,54.04
2019-01-17T15:35:46.394Z,54.13
2019-01-17T15:38:48.412Z,54.30
2019-01-17T15:41:50.361Z,54.32
2019-01-17T15:44:52.351Z,54.24
2019-01-17T15:47:54.587Z,54.22
2019-01-17T15:50:56.987Z,54.13
2019-01-17T15:53:58.902Z,54.17
2019-01-17T15:57:01.118Z,54.18
2019-01-17T16:00:06.763Z,54.19
2019-01-17T16:03:08.720Z,54.05
2019-01-17T16:06:10.798Z,54.30
2019-01-17T16:09:13.142Z,54.56
2019-01-17T16:12:15.069Z,54.66
2019-01-17T16:15:20.717Z,54.50
2019-01-17T16:18:23.916Z,54.41
2019-01-17T16:21:25.934Z,54.32
2019-01-17T16:24:28.702Z,54.57
2019-01-17T16:27:31.755Z,54.77
2019-01-17T16:30:33.730Z,54.92
2019-01-17T16:33:35.770Z,54.79
2019-01-17T16:36:37.677Z,54.67
2019-01-17T16:39:39.669Z,54.71
2019-01-17T16:42:43.104Z,54.61
2019-01-17T16:45:47.889Z,54.58
2019-01-17T16:48:49.887Z,54.63
2019-01-17T16:51:51.910Z,54.57
2019-01-17T16:54:53.934Z,54.72
2019-01-17T16:57:57.919Z,54.58
2019-01-17T17:01:00.366Z,54.46
2019-01-17T17:04:02.408Z,54.55
2019-01-17T17:07:04.328Z,54.32
2019-01-17T17:10:11.079Z,54.28
2019-01-17T17:13:13.010Z,54.38
2019-01-17T17:16:18.298Z,54.62
2019-01-17T17:19:20.191Z,54.85
2019-01-17T17:22:23.894Z,55.04
2019-01-17T17:25:25.842Z,55.10
2019-01-17T17:28:28.729Z,55.06
2019-01-17T17:31:30.673Z,54.93
2019-01-17T17:34:32.716Z,55.05
2019-01-17T17:37:37.587Z,55.28
2019-01-17T17:40:39.563Z,55.66
2019-01-17T17:43:41.585Z,55.97
2019-01-17T17:46:43.596Z,56.05
2019-01-17T17:49:45.498Z,56.05
2019-01-17T17:52:49.575Z,56.07
2019-01-17T17:55:51.492Z,55.96
2019-01-17T17:58:53.550Z,55.78
2019-01-17T18:01:59.208Z,55.82
2019-01-17T18:05:01.155Z,55.84
2019-01-17T18:08:04.955Z,55.84
2019-01-17T18:11:08.075Z,55.86
2019-01-17T18:14:10.227Z,55.80
2019-01-17T18:17:14.137Z,55.79
2019-01-17T18:20:16.893Z,55.75
2019-01-17T18:23:18.848Z,55.80
2019-01-17T18:26:23.999Z,55.90
2019-01-17T18:29:27.847Z,55.96
2019-01-17T18:32:29.755Z,55.92
2019-01-17T18:35:31.693Z,55.88
2019-01-17T18:38:34.747Z,55.83
2019-01-17T18:41:36.987Z,55.81
2019-01-17T18:44:39.021Z,55.84
2019-01-17T18:47:42.451Z,55.98
2019-01-17T18:50:45.689Z,55.97
2019-01-17T18:53:50.288Z,56.06
2019-01-17T18:56:52.181Z,56.18
2019-01-17T18:59:54.242Z,56.31
2019-01-17T19:02:58.557Z,56.46
2019-01-17T19:06:02.393Z,56.63
2019-01-17T19:09:07.134Z,56.94
2019-01-17T19:12:09.401Z,57.05
2019-01-17T19:15:15.506Z,57.14
2019-01-17T19:18:19.154Z,57.24
2019-01-17T19:21:22.998Z,57.18
2019-01-17T19:24:25.999Z,57.09
2019-01-17T19:27:29.237Z,56.95
2019-01-17T19:30:31.720Z,56.69
2019-01-17T19:33:37.073Z,56.50
2019-01-17T19:36:39.304Z,56.61
2019-01-17T19:39:45.532Z,56.73
2019-01-17T19:42:47.485Z,57.13
2019-01-17T19:45:49.884Z,57.26
2019-01-17T19:48:52.244Z,57.39
2019-01-17T19:51:55.842Z,57.66
2019-01-17T19:54:58.083Z,57.93
2019-01-17T19:58:03.806Z,58.09
2019-01-17T20:01:06.074Z,58.25
2019-01-17T20:04:08.064Z,58.45
2019-01-17T20:07:11.045Z,58.59
2019-01-17T20:10:21.113Z,58.63
2019-01-17T20:13:23.079Z,58.66
2019-01-17T20:16:27.432Z,58.45
2019-01-17T20:19:29.710Z,58.34
2019-01-17T20:22:33.802Z,58.33
2019-01-17T20:25:36.034Z,58.08
2019-01-17T20:28:41.397Z,58.06
2019-01-17T20:31:44.475Z,57.89
2019-01-17T20:34:46.610Z,57.88
2019-01-17T20:37:48.546Z,57.65
2019-01-17T20:40:50.546Z,57.48
2019-01-17T20:43:52.906Z,57.30
2019-01-17T20:46:55.396Z,57.22
2019-01-17T20:49:57.355Z,57.13
2019-01-17T20:53:02.218Z,57.01
2019-01-17T20:56:04.157Z,56.89
2019-01-17T20:59:06.120Z,56.75
2019-01-17T21:02:12.736Z,56.63
2019-01-17T21:05:16.724Z,56.47
2019-01-17T21:08:19.785Z,56.62
2019-01-17T21:11:23.880Z,56.81
2019-01-17T21:14:27.311Z,56.88
2019-01-17T21:17:31.526Z,56.78
2019-01-17T21:20:33.557Z,56.89
2019-01-17T21:23:37.376Z,57.07
2019-01-17T21:26:40.861Z,57.15
2019-01-17T21:29:42.870Z,57.30
2019-01-17T21:32:45.888Z,57.25
2019-01-17T21:35:47.875Z,57.18
2019-01-17T21:38:49.814Z,57.21
2019-01-17T21:41:51.829Z,56.94
2019-01-17T21:44:53.775Z,56.75
2019-01-17T21:47:55.717Z,56.60
2019-01-17T21:50:57.629Z,56.46
2019-01-17T21:53:59.727Z,56.20
2019-01-17T21:57:01.674Z,56.21
2019-01-17T22:00:07.711Z,56.08
2019-01-17T22:03:09.712Z,56.05
2019-01-17T22:06:11.744Z,55.98
2019-01-17T22:09:13.837Z,55.94
2019-01-17T22:12:15.863Z,55.97
2019-01-17T22:15:25.900Z,55.93
2019-01-17T22:18:28.467Z,55.91
2019-01-17T22:21:30.628Z,55.92
2019-01-17T22:24:32.589Z,55.88
2019-01-17T22:27:34.461Z,55.73
2019-01-17T22:30:36.753Z,55.67
2019-01-17T22:33:38.660Z,55.50
2019-01-17T22:36:40.616Z,55.60
2019-01-17T22:39:42.641Z,55.38
2019-01-17T22:42:44.595Z,55.28
2019-01-17T22:45:46.599Z,55.03
2019-01-17T22:48:48.494Z,54.69
2019-01-17T22:51:54.588Z,54.54
2019-01-17T22:57:59.359Z,53.58
2019-01-17T23:01:05.108Z,53.32
2019-01-17T23:04:07.099Z,52.99
2019-01-17T23:07:09.004Z,52.67
2019-01-17T23:10:11.070Z,54.28
2019-01-17T23:13:12.984Z,55.23
2019-01-17T23:16:14.917Z,55.62
2019-01-17T23:19:16.857Z,56.74
2019-01-17T23:22:18.824Z,57.83
2019-01-17T23:25:21.043Z,58.93
2019-01-17T23:28:22.931Z,59.31
2019-01-17T23:31:24.964Z,59.81
2019-01-17T23:34:26.877Z,60.46
2019-01-17T23:37:29.342Z,60.48
2019-01-17T23:40:31.254Z,60.70
2019-01-17T23:43:33.222Z,60.91
2019-01-17T23:46:35.248Z,60.71
2019-01-17T23:49:37.223Z,60.47
2019-01-17T23:52:39.383Z,59.65
2019-01-17T23:55:41.598Z,58.96
2019-01-17T23:58:43.967Z,58.54
